WBKWWBKS

Guest
Details From WBKW - Tawau
To WBKS - Sandakan
Flight Number -
Tags generated
Created
Modified
Stats Distance 96 nm / 178 km
Max Altitude 400 ft / 122 m
Waypoints 3
Social Downloads 3
Likes 0
Share

Download

Looking for another format? Having issues loading an existing format? Contact us
Advertisement - Login to hide

Notes

Basic altitude profile: - Ascent Rate: 2500ft/min - Ascent Speed: 250kts - Cruise Altitude: 35000ft - Cruise Speed: 420kts - Descent Rate: 1500ft/min - Descent Speed: 250kts Options: - Use NATs: yes - Use PACOTS: yes - Use low airways: yes - Use high airways: yes

Route

WBKW VTW WBKS

ID Type Via Altitude (ft/m) Position (lat/lon) Dist (leg/tot) Name
O WBKW APT - 0 / 0 4.31337 / 118.12195 - / 0 nm Tawau
VTW VOR - 400 / 122 4.32452 / 118.13991 1 / 1 nm TAWAU VOR-DME
O WBKS APT - 0 / 0 5.90090 / 118.05949 94 / 96 nm Sandakan

Altitude Profile

Advertisement - Login to hide

WBKW

Details ICAO WBKW (TWU)
Name Tawau
Region Brunei and Malaysia
Timezone Asia/Kuching (UTC+8.0)
Stats Elevation 56 ft / 17 m (AMSL)
Location 4.313400° 118.122000°
Runways 1
Magnetic Variation 0.610° W

METAR

WBKW 041200Z 00000KT 9999 FEW016CB 27/25 Q1010

Decode

TAF

TAF WBKW 041100Z 0412/0512 33005KT 9999 FEW017 PROB40 TEMPO 0419/0422 5000 TSRA FEW016CB SCT027

Decode

Departure Runways

ID Width Length Bearing (true/mag) Surface Threshold Overrun Markings Lighting
06 148 ft / 45 m 8,835 ft / 2,693 m 58.19° / 58.80° ASPHALT 0 ft / 0 m 0 ft / 0 m PREC-APP EDGE THRESHOLD
24 148 ft / 45 m 8,835 ft / 2,693 m 238.19° / 238.80° ASPHALT 0 ft / 0 m 0 ft / 0 m PREC-APP EDGE THRESHOLD

WBKS

Details ICAO WBKS (SDK)
Name Sandakan
Region Brunei and Malaysia
Timezone Asia/Kuching (UTC+8.0)
Stats Elevation 46 ft / 14 m (AMSL)
Location 5.901270° 118.060000°
Runways 1
Magnetic Variation 0.840° W

METAR

WBKS 041200Z 11004KT 070V160 4000 -TSRA FEW009 SCT014 FEW015CB 27/25 Q1010

Decode

TAF

TAF WBKS 041100Z 0412/0512 12005KT 9999 FEW016 PROB40 TEMPO 0412/0416 4000 TSRA SCT010 FEW016CB SCT030 BECMG 0418/0420 22005KT

Decode

Destination Runways

ID Width Length Bearing (true/mag) Surface Threshold Overrun Markings Lighting
08 164 ft / 50 m 7,001 ft / 2,134 m 80.74° / 81.58° ASPHALT 0 ft / 0 m 190 ft / 58 m PREC-APP CENTERLINE EDGE THRESHOLD
26 164 ft / 50 m 7,001 ft / 2,134 m 260.74° / 261.58° ASPHALT 0 ft / 0 m 210 ft / 64 m PREC-APP CENTERLINE EDGE THRESHOLD

Approach Navaids

Runway Type Ident Frequency Range Bearing (true/mag) Slope Elevation
08 GS ISKN 109.30 MHz 10 nm / 19 km 81.12° / 81.96 ° 3.00° 46 ft / 14 m (AMSL)
08 DME ISKN 109.30 MHz 18 nm / 33 km - - 46 ft / 14 m (AMSL)
08 LOC-ILS ISKN 109.30 MHz 18 nm / 33 km 80.48° / 81.32 ° - 46 ft / 14 m (AMSL)

Popular Alternatives